createdAt,value
2023-04-14T00:08:25.952Z,11.3
2023-04-14T00:23:35.193Z,10.2
2023-04-14T00:38:44.156Z,7.6
2023-04-14T00:53:57.536Z,8.9
2023-04-14T01:09:06.808Z,9.4
2023-04-14T01:24:16.372Z,8.8
2023-04-14T01:39:25.831Z,9
2023-04-14T01:54:35.456Z,10.4
2023-04-14T02:09:45.362Z,7.5
2023-04-14T02:24:57.734Z,10.1
2023-04-14T02:40:07.164Z,12.7
2023-04-14T02:55:16.800Z,17
2023-04-14T03:10:26.718Z,11.9
2023-04-14T03:25:36.144Z,11.9
2023-04-14T03:40:45.494Z,10.6
2023-04-14T03:55:55.905Z,11.6
2023-04-14T04:11:05.121Z,14.5
2023-04-14T04:26:14.943Z,13.3
2023-04-14T04:41:25.307Z,14.8
2023-04-14T04:56:34.982Z,15.5
2023-04-14T05:11:44.879Z,17.9
2023-04-14T05:27:15.063Z,21.1
2023-04-14T05:42:25.704Z,17.5
2023-04-14T05:57:35.420Z,16.8
2023-04-14T06:12:45.291Z,19.9
2023-04-14T06:27:57.542Z,22.1
2023-04-14T06:43:07.694Z,28.3
2023-04-14T06:58:17.650Z,17.8
2023-04-14T07:13:28.182Z,21.3
2023-04-14T07:28:39.327Z,15.2
2023-04-14T07:43:49.252Z,11.3
2023-04-14T07:59:00.237Z,10.2
2023-04-14T08:14:10.854Z,9.1
2023-04-14T08:29:20.946Z,11.8
2023-04-14T08:44:31.067Z,4.5
2023-04-14T08:59:41.193Z,6.3
2023-04-14T09:14:51.411Z,3.4
2023-04-14T09:30:01.284Z,7.5
2023-04-14T09:45:11.992Z,4.8
2023-04-14T10:00:22.029Z,4
2023-04-14T10:15:32.311Z,4.5
2023-04-14T10:30:42.751Z,7.9
2023-04-14T10:45:52.343Z,3.4
2023-04-14T11:01:02.406Z,6.6
2023-04-14T11:16:12.983Z,6.7
2023-04-14T11:31:23.988Z,4.9
2023-04-14T11:46:34.708Z,5.1
2023-04-14T12:01:45.620Z,8.4
2023-04-14T12:16:57.903Z,4.4
2023-04-14T12:32:07.961Z,5.1
2023-04-14T12:47:17.859Z,5
2023-04-14T13:02:28.262Z,2.6
2023-04-14T13:17:39.688Z,6
2023-04-14T13:32:49.520Z,6.3
2023-04-14T13:47:59.152Z,4.7
2023-04-14T14:03:09.043Z,3.8
2023-04-14T14:18:18.981Z,5.9
2023-04-14T14:33:28.402Z,6.5
2023-04-14T14:48:38.230Z,3.8
2023-04-14T15:03:48.507Z,5
2023-04-14T15:19:00.119Z,1.9
2023-04-14T15:34:10.422Z,3.3
2023-04-14T15:49:25.866Z,9.5
2023-04-14T16:04:35.755Z,2.8
2023-04-14T16:19:44.446Z,2.7
2023-04-14T16:34:53.202Z,8.4
2023-04-14T16:50:03.174Z,3.4
2023-04-14T17:05:13.280Z,6.1
2023-04-14T17:20:22.900Z,3.2
2023-04-14T17:35:32.227Z,2.8
2023-04-14T17:50:41.845Z,5.8
2023-04-14T18:05:51.216Z,3.7
2023-04-14T18:21:00.497Z,4.1
2023-04-14T18:36:09.782Z,11.9
2023-04-14T18:51:19.605Z,9.9
2023-04-14T19:06:29.466Z,35.5
2023-04-14T19:21:39.323Z,6.5
2023-04-14T19:36:48.788Z,7.2
2023-04-14T19:51:58.221Z,6.1
2023-04-14T20:07:07.558Z,6.1
2023-04-14T20:22:17.099Z,8.2
2023-04-14T20:37:26.426Z,7.2
2023-04-14T20:52:36.034Z,6
2023-04-14T21:07:45.615Z,6.4
2023-04-14T21:24:05.821Z,7.9
2023-04-14T21:40:26.516Z,7.9
2023-04-14T21:56:47.298Z,6.1
2023-04-14T22:13:09.946Z,7.7
2023-04-14T22:29:29.972Z,7.9
2023-04-14T22:45:50.551Z,6.8
2023-04-14T23:02:11.154Z,6.7
2023-04-14T23:18:32.145Z,7.5
2023-04-14T23:34:52.978Z,6.9
2023-04-14T23:51:22.655Z,9.4
